Time;durP1;ratioP1;P1;durP2;ratioP2;P2;SDS_P1;SDS_P2;PMS_P1;PMS_P2;Temp;Humidity;BMP_temperature;BMP_pressure;BME280_temperature;BME280_humidity;BME280_pressure;Samples;Min_cycle;Max_cycle;Signal;HPM_P1;HPM_P2
2022/02/24 00:02:00;;;;;;;0.03;0.03;;;;;;;5.52;71.89;100060.78;7372877;19;20007;-61
2022/02/24 00:04:25;;;;;;;0.00;0.00;;;;;;;5.47;71.82;100056.53;7372358;19;20022;-61
2022/02/24 00:06:51;;;;;;;0.00;0.00;;;;;;;5.44;72.21;100048.81;7372451;19;20014;-61
2022/02/24 00:09:16;;;;;;;0.03;0.03;;;;;;;5.41;72.28;100048.81;7369330;19;20506;-61
2022/02/24 00:11:42;;;;;;;0.00;0.00;;;;;;;5.42;72.13;100042.78;7369300;19;20046;-61
2022/02/24 00:14:08;;;;;;;0.00;0.00;;;;;;;5.41;72.28;100047.97;7362282;19;20022;-61
2022/02/24 00:16:33;;;;;;;0.00;0.00;;;;;;;5.41;72.38;100038.47;7363352;19;20010;-61
2022/02/24 00:18:59;;;;;;;0.00;0.00;;;;;;;5.40;72.58;100021.22;7367993;19;20014;-61
2022/02/24 00:21:24;;;;;;;0.00;0.00;;;;;;;5.41;72.13;100033.28;7366316;19;20022;-62
2022/02/24 00:23:50;;;;;;;0.00;0.00;;;;;;;5.41;72.37;100028.13;7366285;19;20014;-61
2022/02/24 00:26:15;;;;;;;0.00;0.00;;;;;;;5.42;72.35;100022.09;7356091;19;20027;-61
2022/02/24 00:28:41;;;;;;;0.05;0.05;;;;;;;5.44;72.38;100022.91;7368171;19;20619;-62
2022/02/24 00:31:09;;;;;;;0.05;0.05;;;;;;;5.43;72.63;100016.03;7366991;19;20350;-62
2022/02/24 00:33:41;;;;;;;0.08;0.08;;;;;;;5.47;72.29;100007.34;7359110;19;20030;-62
2022/02/24 00:36:07;;;;;;;0.00;0.00;;;;;;;5.37;72.21;99990.22;7361796;19;20010;-61
2022/02/24 00:38:33;;;;;;;0.00;0.00;;;;;;;5.51;71.95;100005.56;7366145;19;20010;-61
2022/02/24 00:40:59;;;;;;;0.10;0.10;;;;;;;5.53;71.99;100000.38;7355189;19;20029;-62
2022/02/24 00:43:24;;;;;;;0.00;0.00;;;;;;;5.57;72.07;99996.84;7367410;19;20014;-61
2022/02/24 00:45:50;;;;;;;0.00;0.00;;;;;;;5.58;72.38;99983.88;7367156;19;20019;-61
2022/02/24 00:48:15;;;;;;;0.00;0.00;;;;;;;5.60;71.88;100000.25;7366886;19;20019;-61
2022/02/24 00:50:41;;;;;;;0.00;0.00;;;;;;;5.63;71.98;99994.19;7362073;19;20014;-61
2022/02/24 00:53:06;;;;;;;0.00;0.00;;;;;;;5.65;71.97;100001.03;7363328;19;20018;-61
2022/02/24 00:55:33;;;;;;;0.08;0.08;;;;;;;5.69;72.26;100004.47;7361204;19;20473;-61
2022/02/24 00:57:58;;;;;;;0.00;0.00;;;;;;;5.69;72.51;99999.28;7358774;19;20046;-62
2022/02/24 01:00:24;;;;;;;0.00;0.00;;;;;;;5.73;72.12;99990.59;7361546;19;20002;-61
2022/02/24 01:02:49;;;;;;;0.00;0.00;;;;;;;5.75;72.15;99986.22;7362071;19;20013;-61
2022/02/24 01:05:15;;;;;;;0.10;0.10;;;;;;;5.74;71.83;99984.53;7363765;19;20025;-61
2022/02/24 01:07:40;;;;;;;0.00;0.00;;;;;;;5.75;71.33;99999.19;7363746;19;20552;-61
2022/02/24 01:10:22;;;;;;;0.00;0.00;;;;;;;5.72;71.05;99981.09;4194184;19;10003270;-61
2022/02/24 01:12:47;;;;;;;0.00;0.00;;;;;;;5.65;70.96;99971.69;5025100;19;10001015;-61
2022/02/24 01:15:13;;;;;;;0.03;0.03;;;;;;;5.61;71.08;99993.34;7363377;19;20033;-62
2022/02/24 01:17:40;;;;;;;0.00;0.00;;;;;;;5.54;70.99;99986.53;7359072;19;20048;-62
2022/02/24 01:20:07;;;;;;;0.00;0.00;;;;;;;5.47;70.44;99976.28;7364912;19;20030;-61
2022/02/24 01:22:33;;;;;;;0.00;0.00;;;;;;;5.34;70.99;99961.75;7358063;19;20014;-62
2022/02/24 01:24:59;;;;;;;0.00;0.00;;;;;;;5.34;71.03;99974.72;7358734;19;22090;-62
2022/02/24 01:27:24;;;;;;;0.05;0.05;;;;;;;5.28;70.78;99974.78;7362477;19;20088;-62
2022/02/24 01:29:50;;;;;;;0.00;0.00;;;;;;;5.21;71.24;99978.31;7356743;19;20018;-61
2022/02/24 01:32:16;;;;;;;0.00;0.00;;;;;;;5.16;71.14;99985.28;7337312;19;20015;-61
2022/02/24 01:34:42;;;;;;;0.00;0.00;;;;;;;5.13;71.40;99977.56;7359662;19;20370;-61
2022/02/24 01:37:07;;;;;;;0.00;0.00;;;;;;;4.98;71.49;99967.41;7354806;19;20018;-62
2022/02/24 01:39:33;;;;;;;0.00;0.00;;;;;;;5.05;71.89;99981.97;7361786;19;20412;-62
2022/02/24 01:41:59;;;;;;;0.00;0.00;;;;;;;4.86;71.76;99964.06;7353398;19;20022;-61
2022/02/24 01:44:24;;;;;;;0.00;0.00;;;;;;;4.95;72.18;99969.13;7365012;19;20356;-62
2022/02/24 01:46:50;;;;;;;0.00;0.00;;;;;;;4.90;72.29;99963.16;7368380;19;20798;-61
2022/02/24 01:49:21;;;;;;;0.00;0.00;;;;;;;4.88;72.18;99959.75;7357815;19;20473;-62
2022/02/24 01:51:48;;;;;;;0.10;0.10;;;;;;;4.82;72.42;99965.00;7361484;19;20022;-62
2022/02/24 01:54:13;;;;;;;0.00;0.00;;;;;;;4.81;72.42;99965.84;7359150;19;20010;-62
2022/02/24 01:56:39;;;;;;;0.10;0.10;;;;;;;4.66;72.42;99942.72;7359036;19;20722;-62
2022/02/24 01:59:05;;;;;;;0.00;0.00;;;;;;;4.72;72.85;99950.44;7358680;19;20117;-62
2022/02/24 02:01:30;;;;;;;0.00;0.00;;;;;;;4.64;72.95;99939.31;7357943;19;20010;-62
2022/02/24 02:03:56;;;;;;;0.10;0.10;;;;;;;4.76;72.81;99959.88;7363312;19;20637;-62
2022/02/24 02:06:22;;;;;;;0.00;0.00;;;;;;;4.78;73.25;99967.63;7354990;19;20055;-62
2022/02/24 02:08:48;;;;;;;0.00;0.00;;;;;;;4.80;73.22;99958.97;7362678;19;20009;-62
2022/02/24 02:11:14;;;;;;;0.00;0.00;;;;;;;4.79;73.58;99949.50;7358289;19;20035;-62
2022/02/24 02:13:39;;;;;;;0.00;0.00;;;;;;;4.72;72.92;99924.59;7362541;19;20459;-62
2022/02/24 02:16:07;;;;;;;0.00;0.00;;;;;;;4.76;73.05;99918.47;7364912;19;20007;-62
2022/02/24 02:18:33;;;;;;;0.10;0.10;;;;;;;4.85;73.36;99927.88;7361250;19;20013;-62
2022/02/24 02:20:59;;;;;;;0.00;0.00;;;;;;;4.79;73.53;99918.47;7363726;19;20019;-62
2022/02/24 02:23:24;;;;;;;0.00;0.00;;;;;;;4.85;73.15;99933.91;7358548;19;20015;-62
2022/02/24 02:25:50;;;;;;;0.00;0.00;;;;;;;4.84;73.44;99932.19;7360849;19;20013;-62
2022/02/24 02:28:16;;;;;;;0.00;0.00;;;;;;;4.80;73.28;99930.50;7367155;19;20015;-61
2022/02/24 02:30:43;;;;;;;0.00;0.00;;;;;;;4.84;73.33;99926.16;7367483;19;20041;-62
2022/02/24 02:33:09;;;;;;;0.00;0.00;;;;;;;4.84;72.30;99932.19;7369372;19;20010;-62
2022/02/24 02:35:35;;;;;;;0.00;0.00;;;;;;;4.79;72.21;99918.47;7358746;19;20036;-62
2022/02/24 02:38:01;;;;;;;0.03;0.03;;;;;;;4.72;72.55;99911.66;7367783;19;20006;-62
2022/02/24 02:40:26;;;;;;;0.00;0.00;;;;;;;4.54;72.76;99891.16;7372030;19;20010;-62
2022/02/24 02:42:52;;;;;;;0.00;0.00;;;;;;;4.54;72.72;99901.50;7359780;19;20093;-62
2022/02/24 02:45:18;;;;;;;0.00;0.00;;;;;;;4.46;72.83;99892.97;7363121;19;20106;-62
2022/02/24 02:47:44;;;;;;;0.00;0.00;;;;;;;4.37;72.90;99905.13;7361359;19;20018;-63
2022/02/24 02:50:10;;;;;;;0.00;0.00;;;;;;;4.25;72.73;99884.56;7361900;19;20033;-63
2022/02/24 02:52:36;;;;;;;0.00;0.00;;;;;;;4.14;72.92;99876.94;7362030;19;20082;-63
2022/02/24 02:55:09;;;;;;;0.00;0.00;;;;;;;4.12;73.06;99883.00;7361293;19;20441;-62
2022/02/24 02:57:37;;;;;;;0.00;0.00;;;;;;;4.03;73.09;99889.09;7354995;19;20348;-62
2022/02/24 03:00:05;;;;;;;0.00;0.00;;;;;;;3.97;73.48;99883.13;7360104;19;20029;-62
2022/02/24 03:02:31;;;;;;;0.00;0.00;;;;;;;3.93;73.35;99879.72;7362233;19;20013;-63
2022/02/24 03:04:56;;;;;;;0.00;0.00;;;;;;;3.87;73.93;99872.03;7363081;19;20042;-63
2022/02/24 03:07:22;;;;;;;0.00;0.00;;;;;;;3.84;74.45;99861.72;7356977;19;20006;-63
2022/02/24 03:09:48;;;;;;;0.00;0.00;;;;;;;3.80;74.38;99860.03;7358396;19;20014;-62
2022/02/24 03:12:14;;;;;;;0.00;0.00;;;;;;;3.78;73.93;99847.13;7362314;19;20019;-63
2022/02/24 03:14:40;;;;;;;0.00;0.00;;;;;;;3.75;74.57;99860.09;7356722;19;20366;-63
2022/02/24 03:17:06;;;;;;;0.00;0.00;;;;;;;3.72;74.37;99849.78;7362081;19;20006;-62
2022/02/24 03:19:32;;;;;;;0.00;0.00;;;;;;;3.70;74.06;99854.09;7361725;19;20707;-62
2022/02/24 03:21:57;;;;;;;0.00;0.00;;;;;;;3.71;74.20;99844.63;7360682;19;20014;-63
2022/02/24 03:24:23;;;;;;;0.00;0.00;;;;;;;3.71;74.49;99847.22;7360618;19;20102;-63
2022/02/24 03:26:48;;;;;;;0.00;0.00;;;;;;;3.71;74.70;99848.06;7360274;19;20010;-63
2022/02/24 03:29:14;;;;;;;0.00;0.00;;;;;;;3.72;74.77;99844.59;7359417;19;20019;-62
2022/02/24 03:31:41;;;;;;;0.00;0.00;;;;;;;3.72;74.69;99847.19;7359564;19;20015;-63
2022/02/24 03:34:06;;;;;;;0.00;0.00;;;;;;;3.76;74.63;99848.03;7358505;19;20011;-64
2022/02/24 03:36:32;;;;;;;0.00;0.00;;;;;;;3.68;74.07;99830.00;7362236;19;20013;-63
2022/02/24 03:38:57;;;;;;;0.10;0.10;;;;;;;3.69;74.46;99805.91;7358571;19;20620;-63
2022/02/24 03:41:23;;;;;;;0.00;0.00;;;;;;;3.85;74.30;99833.31;7358105;19;20002;-63
2022/02/24 03:43:50;;;;;;;0.00;0.00;;;;;;;3.86;74.59;99829.84;7360884;19;20022;-63
2022/02/24 03:46:16;;;;;;;0.00;0.00;;;;;;;3.88;74.46;99822.94;7358675;19;20010;-63
2022/02/24 03:48:41;;;;;;;0.00;0.00;;;;;;;3.92;74.59;99817.75;7357438;19;20462;-63
2022/02/24 03:51:07;;;;;;;0.00;0.00;;;;;;;3.90;74.50;99810.88;7363398;19;20022;-63
2022/02/24 03:53:32;;;;;;;0.00;0.00;;;;;;;3.93;74.25;99799.66;7365064;19;20015;-63
2022/02/24 03:55:57;;;;;;;0.03;0.03;;;;;;;3.94;74.24;99803.09;7370148;19;20029;-63
2022/02/24 03:58:23;;;;;;;0.00;0.00;;;;;;;3.90;74.21;99790.22;7366995;19;20002;-63
2022/02/24 04:00:48;;;;;;;0.00;0.00;;;;;;;3.86;74.35;99783.38;7367392;19;20024;-63
2022/02/24 04:03:14;;;;;;;0.00;0.00;;;;;;;3.99;74.46;99793.56;7362866;19;20006;-63
2022/02/24 04:05:48;;;;;;;0.00;0.00;;;;;;;4.02;74.57;99788.38;4854622;19;10002152;-63
2022/02/24 04:08:13;;;;;;;0.00;0.00;;;;;;;3.82;74.50;99771.34;4010623;19;10001713;-63
2022/02/24 04:10:39;;;;;;;0.00;0.00;;;;;;;4.04;74.51;99802.97;7360451;19;20104;-62
2022/02/24 04:13:04;;;;;;;0.00;0.00;;;;;;;4.05;74.33;99793.50;7362842;19;20014;-63
2022/02/24 04:15:30;;;;;;;0.00;0.00;;;;;;;4.08;74.42;99796.91;7369789;19;20010;-62
2022/02/24 04:17:55;;;;;;;0.00;0.00;;;;;;;4.06;74.37;99783.16;7354275;19;20668;-62
2022/02/24 04:20:21;;;;;;;0.00;0.00;;;;;;;4.11;74.19;99798.63;7369728;19;19999;-63
2022/02/24 04:22:46;;;;;;;0.00;0.00;;;;;;;3.99;74.10;99767.72;7361504;19;20082;-63
2022/02/24 04:25:11;;;;;;;0.00;0.00;;;;;;;4.13;73.76;99792.53;7366934;19;20086;-63
2022/02/24 04:27:45;;;;;;;0.00;0.00;;;;;;;4.14;73.82;99804.59;7368018;19;20018;-63
2022/02/24 04:30:11;;;;;;;0.00;0.00;;;;;;;4.12;74.07;99798.59;7366311;19;19998;-62
2022/02/24 04:32:36;;;;;;;0.00;0.00;;;;;;;4.12;73.72;99789.97;7367728;19;20348;-63
2022/02/24 04:35:02;;;;;;;0.03;0.03;;;;;;;4.10;73.82;99786.53;7367885;19;20009;-62
2022/02/24 04:37:27;;;;;;;0.00;0.00;;;;;;;4.09;73.48;99800.34;7364138;19;20041;-62
2022/02/24 04:39:52;;;;;;;0.00;0.00;;;;;;;4.06;73.61;99790.91;7367276;19;20691;-63
2022/02/24 04:42:18;;;;;;;0.00;0.00;;;;;;;4.04;73.39;99784.03;7367727;19;20010;-62
2022/02/24 04:44:43;;;;;;;0.00;0.00;;;;;;;4.00;73.50;99785.78;7364519;19;20027;-62
2022/02/24 04:47:08;;;;;;;0.00;0.00;;;;;;;3.99;73.24;99788.38;7366444;19;20010;-62
2022/02/24 04:49:34;;;;;;;0.10;0.10;;;;;;;3.94;73.64;99800.50;7367542;19;20010;-63
2022/02/24 04:51:59;;;;;;;0.10;0.10;;;;;;;3.91;73.44;99785.91;7367909;19;20478;-63
2022/02/24 04:54:25;;;;;;;0.00;0.00;;;;;;;3.86;73.27;99798.88;7367545;19;20018;-62
2022/02/24 04:56:50;;;;;;;0.00;0.00;;;;;;;3.78;73.70;99795.50;7367147;19;20375;-62
2022/02/24 04:59:15;;;;;;;0.00;0.00;;;;;;;3.83;73.29;99798.88;7364641;19;20029;-62
2022/02/24 05:01:41;;;;;;;0.00;0.00;;;;;;;3.81;73.40;99805.81;7364337;19;20007;-62
2022/02/24 05:04:06;;;;;;;0.00;0.00;;;;;;;3.78;73.28;99805.81;7368597;19;20409;-62
2022/02/24 05:06:32;;;;;;;0.00;0.00;;;;;;;3.69;73.42;99803.31;7364904;19;20019;-62
2022/02/24 05:08:57;;;;;;;0.00;0.00;;;;;;;3.71;73.37;99805.91;7365044;19;20011;-62
2022/02/24 05:11:22;;;;;;;0.00;0.00;;;;;;;3.69;73.31;99811.06;7365941;19;20014;-62
2022/02/24 05:13:48;;;;;;;0.00;0.00;;;;;;;3.67;73.31;99810.22;7366419;19;20010;-62
2022/02/24 05:16:13;;;;;;;0.00;0.00;;;;;;;3.57;73.45;99800.84;7368773;19;20006;-63
2022/02/24 05:18:39;;;;;;;0.00;0.00;;;;;;;3.60;73.38;99821.50;7367368;19;20019;-62
2022/02/24 05:21:04;;;;;;;0.08;0.08;;;;;;;3.57;73.55;99818.94;7365001;19;20016;-62
2022/02/24 05:23:30;;;;;;;0.00;0.00;;;;;;;3.54;73.65;99821.53;7362136;19;20014;-62
2022/02/24 05:25:55;;;;;;;0.00;0.00;;;;;;;3.51;73.40;99816.41;7361209;19;20014;-62
2022/02/24 05:28:20;;;;;;;0.00;0.00;;;;;;;3.50;73.71;99817.28;7365458;19;20056;-62
2022/02/24 05:30:46;;;;;;;0.00;0.00;;;;;;;3.48;73.64;99829.31;7362215;19;20418;-62
2022/02/24 05:33:15;;;;;;;0.00;0.00;;;;;;;3.46;73.61;99821.59;7371762;19;20094;-62
2022/02/24 05:35:40;;;;;;;0.00;0.00;;;;;;;3.46;73.62;99823.31;7369220;19;20006;-62
2022/02/24 05:38:06;;;;;;;0.00;0.00;;;;;;;3.45;74.11;99837.97;7363918;19;20354;-62
2022/02/24 05:40:31;;;;;;;0.00;0.00;;;;;;;3.47;73.91;99830.19;7363915;19;20019;-62
2022/02/24 05:42:58;;;;;;;0.00;0.00;;;;;;;3.48;74.07;99826.72;7363730;19;20026;-62
2022/02/24 05:45:24;;;;;;;0.00;0.00;;;;;;;3.48;73.76;99812.09;7367201;19;20010;-63
2022/02/24 05:47:49;;;;;;;0.00;0.00;;;;;;;3.47;73.91;99804.38;7363681;19;20110;-63
2022/02/24 05:50:15;;;;;;;0.00;0.00;;;;;;;3.48;73.85;99811.25;7360931;19;20018;-62
2022/02/24 05:52:40;;;;;;;0.00;0.00;;;;;;;3.46;73.72;99818.16;7361456;19;20036;-62
2022/02/24 05:55:06;;;;;;;0.00;0.00;;;;;;;3.45;74.02;99819.00;7363094;19;20026;-62
2022/02/24 05:57:32;;;;;;;0.00;0.00;;;;;;;3.43;74.01;99823.34;7361334;19;20015;-62
2022/02/24 05:59:57;;;;;;;0.00;0.00;;;;;;;3.42;74.02;99839.69;7363188;19;20514;-62
2022/02/24 06:02:22;;;;;;;0.00;0.00;;;;;;;3.41;73.81;99831.09;7362236;19;20012;-63
2022/02/24 06:04:48;;;;;;;0.05;0.05;;;;;;;3.38;74.15;99837.13;7363321;19;20006;-63
2022/02/24 06:07:13;;;;;;;0.00;0.00;;;;;;;3.28;74.15;99814.84;7363730;19;20049;-63
2022/02/24 06:09:39;;;;;;;0.00;0.00;;;;;;;3.37;74.26;99845.75;7361657;19;20022;-63
2022/02/24 06:12:04;;;;;;;0.00;0.00;;;;;;;3.37;74.37;99840.56;7361446;19;20383;-63
2022/02/24 06:14:30;;;;;;;0.00;0.00;;;;;;;3.36;74.26;99844.03;7364391;19;20014;-62
2022/02/24 06:16:57;;;;;;;0.00;0.00;;;;;;;3.36;74.54;99843.19;7360635;19;20028;-62
2022/02/24 06:19:23;;;;;;;0.00;0.00;;;;;;;3.35;74.55;99837.16;7344435;19;35173;-62
2022/02/24 06:21:52;;;;;;;0.10;0.10;;;;;;;3.32;74.35;99839.75;1081435;19;10002065;-62
2022/02/24 06:24:18;;;;;;;0.00;0.00;;;;;;;3.32;74.34;99852.66;7364011;19;20686;-63
2022/02/24 06:26:43;;;;;;;0.00;0.00;;;;;;;3.30;74.54;99844.09;7360244;19;20025;-63
2022/02/24 06:29:09;;;;;;;0.00;0.00;;;;;;;3.30;74.25;99846.66;7368026;19;20093;-63
2022/02/24 06:31:34;;;;;;;0.00;0.00;;;;;;;3.30;74.51;99851.81;7371000;19;20038;-63
2022/02/24 06:34:03;;;;;;;0.00;0.00;;;;;;;3.30;74.63;99859.56;7365633;19;20051;-62
2022/02/24 06:36:29;;;;;;;0.00;0.00;;;;;;;3.27;74.46;99849.25;7365892;19;20026;-62
2022/02/24 06:38:56;;;;;;;0.00;0.00;;;;;;;3.32;74.91;99862.13;7362498;19;20021;-62
2022/02/24 06:41:21;;;;;;;0.00;0.00;;;;;;;3.21;74.52;99845.88;7357128;19;20010;-63
2022/02/24 06:43:47;;;;;;;0.00;0.00;;;;;;;3.20;75.01;99842.44;7359098;19;20041;-63
2022/02/24 06:46:13;;;;;;;0.00;0.00;;;;;;;3.36;74.84;99864.69;7360327;19;20003;-63
2022/02/24 06:48:39;;;;;;;0.00;0.00;;;;;;;3.37;75.04;99870.69;7361710;19;20010;-63
2022/02/24 06:51:04;;;;;;;0.00;0.00;;;;;;;3.35;74.44;99873.28;7357136;19;20518;-62
2022/02/24 06:53:30;;;;;;;0.00;0.00;;;;;;;3.42;74.67;99883.56;7363021;19;20011;-62
2022/02/24 06:55:55;;;;;;;0.10;0.10;;;;;;;3.44;74.49;99881.81;7360447;19;20011;-62
2022/02/24 06:58:21;;;;;;;0.00;0.00;;;;;;;3.46;74.58;99900.75;7360254;19;20014;-63
2022/02/24 07:00:46;;;;;;;0.00;0.00;;;;;;;3.47;74.63;99902.47;7362748;19;20046;-63
2022/02/24 07:03:12;;;;;;;0.00;0.00;;;;;;;3.46;74.76;99905.91;7363484;19;20037;-63
2022/02/24 07:05:37;;;;;;;0.00;0.00;;;;;;;3.46;74.71;99911.06;7359541;19;20483;-63
2022/02/24 07:08:03;;;;;;;0.10;0.10;;;;;;;3.47;74.45;99913.63;7360124;19;20014;-62
2022/02/24 07:10:28;;;;;;;0.00;0.00;;;;;;;3.47;74.22;99925.69;7357315;19;20014;-63
2022/02/24 07:12:54;;;;;;;0.00;0.00;;;;;;;3.46;74.13;99900.75;7363287;19;20019;-63
2022/02/24 07:15:19;;;;;;;0.00;0.00;;;;;;;3.43;74.09;99900.75;7369232;19;20017;-63
2022/02/24 07:17:46;;;;;;;0.00;0.00;;;;;;;3.38;73.96;99904.22;7364319;19;20716;-63
2022/02/24 07:20:14;;;;;;;0.10;0.10;;;;;;;3.35;73.89;99899.09;7360460;19;20003;-63
2022/02/24 07:22:40;;;;;;;0.10;0.10;;;;;;;3.29;74.17;99899.09;7369835;19;20017;-63
2022/02/24 07:25:06;;;;;;;0.10;0.10;;;;;;;3.23;73.76;99893.13;7366514;19;20019;-64
2022/02/24 07:27:33;;;;;;;0.00;0.00;;;;;;;3.18;74.28;99900.91;7374148;19;20071;-63
2022/02/24 07:29:59;;;;;;;0.00;0.00;;;;;;;3.12;74.50;99893.19;7361177;19;20018;-63
2022/02/24 07:32:24;;;;;;;0.00;0.00;;;;;;;3.08;74.43;99901.81;7367691;19;20018;-63
2022/02/24 07:34:50;;;;;;;0.00;0.00;;;;;;;3.04;75.07;99907.84;7369721;19;20021;-64
2022/02/24 07:37:15;;;;;;;0.00;0.00;;;;;;;3.04;75.16;99907.84;7360833;19;20501;-64
2022/02/24 07:39:41;;;;;;;0.10;0.10;;;;;;;2.89;74.62;99889.88;7364037;19;20006;-64
2022/02/24 07:42:06;;;;;;;0.00;0.00;;;;;;;3.02;74.88;99918.19;7344890;19;20936;-64
2022/02/24 07:44:32;;;;;;;0.10;0.10;;;;;;;3.03;75.02;99942.25;7337968;19;20032;-64
2022/02/24 07:46:58;;;;;;;0.00;0.00;;;;;;;3.02;74.93;99930.22;7346941;19;20026;-64
2022/02/24 07:49:24;;;;;;;0.05;0.05;;;;;;;2.94;75.05;99929.38;7343156;19;20011;-63
2022/02/24 07:51:51;;;;;;;0.00;0.00;;;;;;;3.00;75.17;99952.59;7346934;19;20780;-65
2022/02/24 07:54:23;;;;;;;0.00;0.00;;;;;;;3.01;74.91;99954.31;7341233;19;20012;-65
2022/02/24 07:56:52;;;;;;;0.00;0.00;;;;;;;2.94;75.13;99938.00;7349730;19;20010;-65
2022/02/24 07:59:18;;;;;;;0.05;0.05;;;;;;;3.01;74.97;99947.44;7368542;19;20021;-66
2022/02/24 08:01:44;;;;;;;0.00;0.00;;;;;;;2.99;75.16;99958.59;7359584;19;20049;-65
2022/02/24 08:04:09;;;;;;;0.00;0.00;;;;;;;2.99;75.09;99953.44;7361979;19;20007;-68
2022/02/24 08:06:35;;;;;;;0.00;0.00;;;;;;;2.91;75.35;99948.31;7362942;19;20010;-65
2022/02/24 08:09:02;;;;;;;0.00;0.00;;;;;;;2.89;75.09;99944.03;7363978;19;20465;-64
2022/02/24 08:11:28;;;;;;;0.10;0.10;;;;;;;2.96;75.57;99961.19;7372532;19;20014;-65
2022/02/24 08:13:53;;;;;;;0.10;0.10;;;;;;;2.97;75.27;99975.81;7371106;19;20556;-65
2022/02/24 08:16:19;;;;;;;0.00;0.00;;;;;;;2.99;75.96;99981.81;7360693;19;20841;-64
2022/02/24 08:18:44;;;;;;;0.00;0.00;;;;;;;3.03;75.50;99992.09;7365435;19;20105;-68
2022/02/24 08:21:10;;;;;;;0.00;0.00;;;;;;;3.06;75.88;99999.00;7362765;19;20042;-66
2022/02/24 08:23:35;;;;;;;0.00;0.00;;;;;;;3.10;76.13;100006.72;7359267;19;20023;-68
2022/02/24 08:26:01;;;;;;;0.00;0.00;;;;;;;3.09;76.04;100004.13;7363022;19;20002;-66
2022/02/24 08:28:26;;;;;;;0.10;0.10;;;;;;;3.19;76.38;99990.31;7360144;19;20664;-65
2022/02/24 08:30:52;;;;;;;0.00;0.00;;;;;;;3.19;76.10;99980.00;7364310;19;20033;-68
2022/02/24 08:33:18;;;;;;;0.00;0.00;;;;;;;3.35;76.64;100002.31;7359373;19;20018;-66
2022/02/24 08:35:58;;;;;;;0.00;0.00;;;;;;;3.62;76.40;100018.53;3615783;19;10002893;-66
2022/02/24 08:38:23;;;;;;;0.10;0.10;;;;;;;3.64;75.66;99999.56;5529909;19;10001363;-63
2022/02/24 08:40:49;;;;;;;0.00;0.00;;;;;;;3.86;75.55;100046.78;7356595;19;20987;-65
2022/02/24 08:43:14;;;;;;;0.00;0.00;;;;;;;3.93;75.59;100039.00;7343135;19;20040;-64
2022/02/24 08:45:46;;;;;;;0.00;0.00;;;;;;;3.97;75.11;100038.13;6812351;19;10000773;-65
2022/02/24 08:48:15;;;;;;;0.10;0.10;;;;;;;3.95;74.75;100039.84;1723514;19;10001926;-65
2022/02/24 08:50:41;;;;;;;0.00;0.00;;;;;;;3.94;75.02;100027.78;7370179;19;20011;-65
2022/02/24 08:53:07;;;;;;;0.00;0.00;;;;;;;3.91;74.72;100033.84;7368315;19;20006;-64
2022/02/24 08:55:36;;;;;;;0.08;0.08;;;;;;;3.89;74.64;100031.25;7365868;19;20014;-63
2022/02/24 08:58:03;;;;;;;0.00;0.00;;;;;;;3.81;74.77;100022.72;7359430;19;20465;-65
2022/02/24 09:00:29;;;;;;;0.00;0.00;;;;;;;3.86;74.70;100033.03;7364912;19;20021;-64
2022/02/24 09:02:54;;;;;;;0.00;0.00;;;;;;;3.70;75.03;100024.53;7363337;19;20081;-64
2022/02/24 09:05:20;;;;;;;0.00;0.00;;;;;;;3.82;74.92;100032.19;7357540;19;20031;-62
2022/02/24 09:07:45;;;;;;;0.00;0.00;;;;;;;3.85;74.90;100029.59;7361200;19;20015;-62
2022/02/24 09:10:10;;;;;;;0.00;0.00;;;;;;;3.86;75.20;100033.88;7364465;19;20018;-66
2022/02/24 09:12:36;;;;;;;0.00;0.00;;;;;;;3.87;75.20;100048.50;7359723;19;20031;-63
2022/02/24 09:15:02;;;;;;;0.00;0.00;;;;;;;3.95;75.23;100057.91;7361984;19;20061;-64
2022/02/24 09:17:28;;;;;;;0.00;0.00;;;;;;;4.00;75.34;100053.59;7358792;19;20047;-64
2022/02/24 09:19:54;;;;;;;0.00;0.00;;;;;;;4.00;75.07;100038.09;7364677;19;20014;-63
2022/02/24 09:22:19;;;;;;;0.00;0.00;;;;;;;4.05;74.66;100062.16;7358952;19;20327;-62
2022/02/24 09:24:45;;;;;;;0.00;0.00;;;;;;;4.07;74.62;100081.13;7363200;19;20018;-66
2022/02/24 09:27:10;;;;;;;0.00;0.00;;;;;;;4.01;74.47;100076.84;7359071;19;21472;-66
2022/02/24 09:29:37;;;;;;;0.10;0.10;;;;;;;4.04;74.91;100081.97;7345932;19;20014;-67
2022/02/24 09:32:03;;;;;;;0.00;0.00;;;;;;;4.04;74.71;100096.63;7366510;19;20089;-62
2022/02/24 09:34:28;;;;;;;0.00;0.00;;;;;;;4.08;74.96;100103.50;7350228;19;20082;-64
2022/02/24 09:36:54;;;;;;;0.00;0.00;;;;;;;4.10;75.24;100088.81;7364121;19;20336;-63
2022/02/24 09:39:19;;;;;;;0.00;0.00;;;;;;;4.37;75.10;100106.75;7363476;19;20045;-65
2022/02/24 09:41:46;;;;;;;0.00;0.00;;;;;;;4.59;75.28;100096.25;7344806;19;20014;-62
2022/02/24 09:44:11;;;;;;;0.00;0.00;;;;;;;4.91;75.19;100120.09;7355492;19;20092;-64
2022/02/24 09:46:40;;;;;;;0.00;0.00;;;;;;;5.20;75.07;100095.66;7358357;19;20042;-64
2022/02/24 09:49:05;;;;;;;0.00;0.00;;;;;;;5.37;74.37;100088.59;7367008;19;20988;-61
2022/02/24 09:51:31;;;;;;;0.00;0.00;;;;;;;5.79;74.38;100096.72;7355941;19;20010;-65
2022/02/24 09:53:57;;;;;;;0.00;0.00;;;;;;;6.08;73.95;100092.88;7360100;19;21928;-65
2022/02/24 09:56:28;;;;;;;0.00;0.00;;;;;;;6.28;73.10;100096.06;7364959;19;20021;-63
2022/02/24 09:58:54;;;;;;;0.00;0.00;;;;;;;6.59;73.33;100095.56;7357376;19;20494;-64
2022/02/24 10:01:20;;;;;;;0.00;0.00;;;;;;;6.74;71.83;100110.88;7355830;19;20017;-64
2022/02/24 10:03:48;;;;;;;0.00;0.00;;;;;;;6.82;71.77;100092.63;7359294;19;20010;-63
2022/02/24 10:06:16;;;;;;;0.00;0.00;;;;;;;6.95;71.79;100097.56;7331927;19;20023;-63
2022/02/24 10:08:44;;;;;;;0.00;0.00;;;;;;;7.07;70.80;100082.66;7350945;19;20105;-64
2022/02/24 10:11:28;;;;;;;0.00;0.00;;;;;;;7.25;70.44;100103.09;7346664;19;20011;-63
2022/02/24 10:14:00;;;;;;;0.00;0.00;;;;;;;7.39;70.73;100098.47;7359114;19;20006;-64
2022/02/24 10:16:29;;;;;;;0.00;0.00;;;;;;;7.46;69.84;100107.88;7354456;19;20014;-65
2022/02/24 10:18:56;;;;;;;0.00;0.00;;;;;;;7.62;69.90;100102.38;7336010;19;20043;-63
2022/02/24 10:21:21;;;;;;;0.00;0.00;;;;;;;7.76;69.12;100121.16;7349912;19;20009;-64
2022/02/24 10:23:49;;;;;;;0.00;0.00;;;;;;;7.95;69.61;100135.44;7353063;19;20010;-64
2022/02/24 10:26:16;;;;;;;0.00;0.00;;;;;;;8.11;68.99;100132.53;7354327;19;20011;-63
2022/02/24 10:28:49;;;;;;;0.00;0.00;;;;;;;8.28;68.19;100151.25;7359612;19;20025;-64
2022/02/24 10:31:20;;;;;;;0.00;0.00;;;;;;;8.33;67.75;100155.44;7351293;19;20074;-64
2022/02/24 10:33:51;;;;;;;0.00;0.00;;;;;;;8.40;67.16;100145.78;7348087;19;20011;-64
2022/02/24 10:36:22;;;;;;;0.00;0.00;;;;;;;8.53;66.54;100141.16;7361366;19;20633;-63
2022/02/24 10:39:01;;;;;;;0.00;0.00;;;;;;;8.64;66.99;100143.50;7353246;19;20045;-63
2022/02/24 10:41:34;;;;;;;0.00;0.00;;;;;;;8.73;65.21;100140.69;7356260;19;20014;-63
2022/02/24 10:44:21;;;;;;;0.00;0.00;;;;;;;8.82;67.37;100153.50;7353918;19;20022;-63
2022/02/24 10:46:52;;;;;;;0.00;0.00;;;;;;;8.88;65.09;100150.72;7253931;19;2004435;-63
2022/02/24 10:49:35;;;;;;;0.00;0.00;;;;;;;9.10;66.84;100145.84;7358053;19;20002;-64
2022/02/24 10:52:11;;;;;;;0.00;0.00;;;;;;;9.29;65.90;100143.63;7345234;19;20006;-63
2022/02/24 10:54:36;;;;;;;0.00;0.00;;;;;;;9.40;64.27;100161.56;7345836;19;20007;-63
2022/02/24 10:57:15;;;;;;;0.00;0.00;;;;;;;9.66;65.62;100166.06;7312715;19;20030;-63
2022/02/24 10:59:41;;;;;;;0.00;0.00;;;;;;;9.82;64.00;100175.19;7356461;19;20006;-63
2022/02/24 11:02:06;;;;;;;0.00;0.00;;;;;;;10.01;64.36;100176.38;7362151;19;20017;-64
2022/02/24 11:04:32;;;;;;;0.00;0.00;;;;;;;10.22;63.59;100200.13;7354503;19;20042;-64
2022/02/24 11:06:58;;;;;;;0.05;0.05;;;;;;;10.25;60.84;100200.09;7332374;19;20006;-63
2022/02/24 11:09:24;;;;;;;0.10;0.10;;;;;;;10.26;60.69;100202.63;7360543;19;20018;-63
2022/02/24 11:11:51;;;;;;;0.00;0.00;;;;;;;10.34;60.32;100199.78;7364356;19;20014;-63
2022/02/24 11:14:16;;;;;;;0.00;0.00;;;;;;;10.44;61.19;100210.81;7328623;19;20007;-64
2022/02/24 11:16:45;;;;;;;0.00;0.00;;;;;;;10.51;58.84;100207.13;7360040;19;20407;-63
2022/02/24 11:19:10;;;;;;;0.00;0.00;;;;;;;10.50;59.44;100185.41;7362393;19;20023;-63
2022/02/24 11:21:53;;;;;;;0.01;0.01;;;;;;;10.77;59.52;100214.16;3674681;19;10279981;-63
2022/02/24 11:24:18;;;;;;;0.00;0.00;;;;;;;10.83;58.69;100213.97;5531242;19;10001518;-63
2022/02/24 11:26:46;;;;;;;0.00;0.00;;;;;;;11.01;58.52;100221.22;7325281;19;20032;-62
2022/02/24 11:29:23;;;;;;;;;;;;;;;11.39;62.70;100232.16;7345417;19;20027;-63
2022/02/24 11:32:06;;;;;;;0.00;0.00;;;;;;;11.57;59.50;100234.16;7353781;19;19915;-63
2022/02/24 11:35:07;;;;;;;0.00;0.00;;;;;;;11.60;58.57;100244.50;7349267;19;20007;-63